Time;durP1;ratioP1;P1;durP2;ratioP2;P2;SDS_P1;SDS_P2;PMS_P1;PMS_P2;Temp;Humidity;BMP_temperature;BMP_pressure;BME280_temperature;BME280_humidity;BME280_pressure;Samples;Min_cycle;Max_cycle;Signal;HPM_P1;HPM_P2
2023/01/02 00:02:03;;;;;;;;;4.67;4.33;;;;;;;;5038019;28;45414;-76
2023/01/02 00:04:28;;;;;;;;;1.00;1.00;;;;;;;;5035548;28;45222;-76
2023/01/02 00:06:54;;;;;;;;;2.33;2.00;;;;;;;;5037965;28;45246;-76
2023/01/02 00:09:19;;;;;;;;;5.33;3.00;;;;;;;;5036833;28;45403;-76
2023/01/02 00:11:44;;;;;;;;;4.00;3.67;;;;;;;;5041486;28;45399;-77
2023/01/02 00:14:09;;;;;;;;;5.67;4.33;;;;;;;;5038217;28;45255;-77
2023/01/02 00:16:35;;;;;;;;;5.67;3.00;;;;;;;;5040976;28;46582;-77
2023/01/02 00:19:00;;;;;;;;;5.67;4.00;;;;;;;;5037956;28;44769;-77
2023/01/02 00:21:25;;;;;;;;;7.33;3.00;;;;;;;;5041154;28;45355;-77
2023/01/02 00:23:50;;;;;;;;;4.00;2.00;;;;;;;;5071749;27;45671;-77
2023/01/02 00:26:15;;;;;;;;;3.33;2.00;;;;;;;;5040813;28;46019;-77
2023/01/02 00:28:41;;;;;;;;;1.33;1.33;;;;;;;;5039154;28;45408;-77
2023/01/02 00:31:07;;;;;;;;;3.67;3.67;;;;;;;;5039416;28;45299;-77
2023/01/02 00:33:32;;;;;;;;;7.33;4.00;;;;;;;;5038925;28;45268;-77
2023/01/02 00:35:57;;;;;;;;;2.67;2.67;;;;;;;;5040228;28;45640;-77
2023/01/02 00:38:22;;;;;;;;;3.00;3.00;;;;;;;;5039975;28;45632;-77
2023/01/02 00:40:48;;;;;;;;;3.33;2.00;;;;;;;;5036840;28;45308;-77
2023/01/02 00:43:13;;;;;;;;;2.00;2.00;;;;;;;;5072921;27;46088;-78
2023/01/02 00:45:38;;;;;;;;;3.00;1.00;;;;;;;;5038131;28;45240;-78
2023/01/02 00:48:03;;;;;;;;;4.00;3.00;;;;;;;;5072962;27;45435;-78
2023/01/02 00:50:28;;;;;;;;;3.00;2.00;;;;;;;;5036204;28;45982;-79
2023/01/02 00:52:54;;;;;;;;;2.00;2.00;;;;;;;;5040340;28;45359;-79
2023/01/02 00:55:19;;;;;;;;;3.67;2.67;;;;;;;;5037254;28;46349;-80
2023/01/02 00:57:44;;;;;;;;;2.67;2.00;;;;;;;;5040181;28;45413;-80
2023/01/02 01:00:10;;;;;;;;;1.00;1.00;;;;;;;;5037188;28;45237;-81
2023/01/02 01:02:35;;;;;;;;;2.00;1.00;;;;;;;;5040279;28;45396;-80
2023/01/02 01:05:00;;;;;;;;;2.00;2.00;;;;;;;;5038426;28;45306;-79
2023/01/02 01:07:27;;;;;;;;;1.67;1.67;;;;;;;;5040117;28;45360;-80
2023/01/02 01:09:52;;;;;;;;;4.33;3.00;;;;;;;;5038852;28;46421;-80
2023/01/02 01:12:17;;;;;;;;;3.33;2.00;;;;;;;;5039905;28;45577;-79
2023/01/02 01:14:43;;;;;;;;;4.67;2.00;;;;;;;;5038364;28;46207;-80
2023/01/02 01:17:08;;;;;;;;;2.00;1.00;;;;;;;;5072719;27;45170;-80
2023/01/02 01:19:34;;;;;;;;;3.00;2.00;;;;;;;;5038133;28;45212;-80
2023/01/02 01:21:59;;;;;;;;;1.00;1.00;;;;;;;;5039782;28;45285;-80
2023/01/02 01:24:25;;;;;;;;;1.67;1.00;;;;;;;;5038151;28;45529;-80
2023/01/02 01:26:50;;;;;;;;;4.00;1.00;;;;;;;;5040064;28;45232;-80
2023/01/02 01:29:15;;;;;;;;;2.00;0.00;;;;;;;;5038263;28;45334;-80
2023/01/02 01:31:40;;;;;;;;;1.00;1.00;;;;;;;;5037712;28;45413;-80
2023/01/02 01:34:06;;;;;;;;;1.00;1.00;;;;;;;;5037125;28;46987;-80
2023/01/02 01:36:31;;;;;;;;;2.00;2.00;;;;;;;;5038997;28;45423;-80
2023/01/02 01:38:56;;;;;;;;;2.00;1.33;;;;;;;;5037116;28;45416;-80
2023/01/02 01:41:23;;;;;;;;;5.33;2.00;;;;;;;;5039436;28;45471;-80
2023/01/02 01:43:49;;;;;;;;;5.67;2.33;;;;;;;;5037525;28;45916;-80
2023/01/02 01:46:32;;;;;;;;;0.67;0.33;;;;;;;;5031674;28;45406;-80
2023/01/02 01:49:16;;;;;;;;;2.00;2.00;;;;;;;;5036123;28;45296;-80
2023/01/02 01:51:53;;;;;;;;;1.33;1.00;;;;;;;;5036227;28;45755;-80
2023/01/02 01:54:23;;;;;;;;;5.00;3.00;;;;;;;;5036311;28;47391;-80
2023/01/02 01:56:52;;;;;;;;;2.33;1.00;;;;;;;;5038575;28;45256;-80
2023/01/02 01:59:17;;;;;;;;;1.00;1.00;;;;;;;;5037667;28;45356;-80
2023/01/02 02:01:43;;;;;;;;;1.00;0.00;;;;;;;;5071641;28;45706;-81
2023/01/02 02:04:10;;;;;;;;;4.00;1.00;;;;;;;;5035914;28;45499;-81
2023/01/02 02:06:35;;;;;;;;;2.33;1.00;;;;;;;;5035532;28;45407;-81
2023/01/02 02:09:04;;;;;;;;;2.00;2.00;;;;;;;;5060767;28;45459;-81
2023/01/02 02:11:29;;;;;;;;;2.00;2.00;;;;;;;;5037707;28;45250;-82
2023/01/02 02:13:58;;;;;;;;;2.00;1.00;;;;;;;;5037342;28;45441;-81
2023/01/02 02:16:26;;;;;;;;;0.00;0.00;;;;;;;;5047475;28;45600;-82
2023/01/02 02:18:58;;;;;;;;;1.33;1.33;;;;;;;;5036111;28;45227;-82
2023/01/02 02:21:32;;;;;;;;;1.00;1.00;;;;;;;;5039271;28;45628;-81
2023/01/02 02:24:06;;;;;;;;;1.00;1.00;;;;;;;;5037139;28;46400;-81
2023/01/02 02:26:34;;;;;;;;;1.00;1.00;;;;;;;;5037190;28;45242;-81
2023/01/02 02:29:08;;;;;;;;;2.33;1.00;;;;;;;;5037467;28;45494;-82
2023/01/02 02:31:42;;;;;;;;;1.00;1.00;;;;;;;;5034423;28;45297;-82
2023/01/02 02:34:15;;;;;;;;;1.33;1.00;;;;;;;;5037724;28;47276;-82
2023/01/02 02:36:47;;;;;;;;;1.00;1.00;;;;;;;;5039100;28;45245;-82
2023/01/02 02:39:18;;;;;;;;;0.00;0.00;;;;;;;;5034616;28;45316;-82
2023/01/02 02:42:01;;;;;;;;;1.00;1.00;;;;;;;;5033297;28;45471;-82
2023/01/02 02:44:44;;;;;;;;;1.00;1.00;;;;;;;;5026279;28;45199;-81
2023/01/02 02:47:21;;;;;;;;;0.33;0.33;;;;;;;;5038066;28;45173;-82
2023/01/02 02:49:46;;;;;;;;;0.00;0.00;;;;;;;;5036923;28;45288;-82
2023/01/02 02:52:12;;;;;;;;;0.00;0.00;;;;;;;;5038521;28;45473;-82
2023/01/02 02:54:44;;;;;;;;;1.00;0.00;;;;;;;;5032626;28;46119;-82
2023/01/02 02:57:11;;;;;;;;;0.00;0.00;;;;;;;;5030920;28;45444;-82
2023/01/02 02:59:38;;;;;;;;;1.67;0.00;;;;;;;;5065032;27;45719;-82
2023/01/02 03:02:03;;;;;;;;;0.00;0.00;;;;;;;;5038625;28;45422;-82
2023/01/02 03:04:29;;;;;;;;;1.00;0.00;;;;;;;;5064613;28;46621;-82
2023/01/02 03:07:12;;;;;;;;;0.00;0.00;;;;;;;;5038857;28;45256;-82
2023/01/02 03:09:43;;;;;;;;;0.00;0.00;;;;;;;;5033959;28;45483;-82
2023/01/02 03:12:17;;;;;;;;;0.00;0.00;;;;;;;;5038695;28;45186;-82
2023/01/02 03:14:53;;;;;;;;;0.00;0.00;;;;;;;;5034285;28;45447;-81
2023/01/02 03:17:40;;;;;;;;;0.00;0.00;;;;;;;;5038423;28;45417;-81
2023/01/02 03:20:07;;;;;;;;;1.00;0.00;;;;;;;;5035776;28;45346;-81
2023/01/02 03:22:34;;;;;;;;;0.67;0.00;;;;;;;;5038150;28;45494;-81
2023/01/02 03:25:01;;;;;;;;;0.00;0.00;;;;;;;;5068927;27;47047;-81
2023/01/02 03:27:28;;;;;;;;;0.00;0.00;;;;;;;;5037980;28;45345;-81
2023/01/02 03:29:59;;;;;;;;;0.00;0.00;;;;;;;;5036577;28;45258;-81
2023/01/02 03:32:28;;;;;;;;;0.00;0.00;;;;;;;;5037823;28;45402;-82
2023/01/02 03:34:53;;;;;;;;;1.67;0.67;;;;;;;;5036168;28;45240;-82
2023/01/02 03:37:22;;;;;;;;;0.00;0.00;;;;;;;;5036635;28;45777;-81
2023/01/02 03:39:50;;;;;;;;;0.00;0.00;;;;;;;;5037647;28;45746;-81
2023/01/02 03:42:18;;;;;;;;;1.00;0.00;;;;;;;;5037802;28;45245;-82
2023/01/02 03:44:46;;;;;;;;;0.00;0.00;;;;;;;;5035943;28;46838;-81
2023/01/02 03:47:31;;;;;;;;;0.00;0.00;;;;;;;;5040852;28;45205;-82
2023/01/02 03:49:58;;;;;;;;;1.00;0.00;;;;;;;;5036244;28;45233;-82
2023/01/02 03:52:23;;;;;;;;;0.00;0.00;;;;;;;;5040374;28;45376;-82
2023/01/02 03:54:49;;;;;;;;;1.00;0.00;;;;;;;;5033861;28;45187;-82
2023/01/02 03:57:36;;;;;;;;;0.00;0.00;;;;;;;;5041198;28;45282;-82
2023/01/02 04:00:06;;;;;;;;;0.00;0.00;;;;;;;;5067267;27;45249;-82
2023/01/02 04:02:43;;;;;;;;;0.00;0.00;;;;;;;;5042084;27;45467;-82
2023/01/02 04:05:11;;;;;;;;;0.00;0.00;;;;;;;;5046498;28;46938;-82
2023/01/02 04:07:36;;;;;;;;;0.00;0.00;;;;;;;;5036352;28;45408;-82
2023/01/02 04:10:03;;;;;;;;;0.00;0.00;;;;;;;;5034662;28;45362;-82
2023/01/02 04:12:32;;;;;;;;;0.00;0.00;;;;;;;;5040948;28;45394;-81
2023/01/02 04:15:13;;;;;;;;;0.00;0.00;;;;;;;;5035434;28;47401;-82
2023/01/02 04:17:54;;;;;;;;;1.00;0.00;;;;;;;;5040977;28;45297;-82
2023/01/02 04:20:22;;;;;;;;;0.00;0.00;;;;;;;;5034057;28;45401;-81
2023/01/02 04:22:58;;;;;;;;;0.00;0.00;;;;;;;;5039381;28;46392;-81
2023/01/02 04:25:27;;;;;;;;;0.00;0.00;;;;;;;;5071242;27;45383;-82
2023/01/02 04:27:52;;;;;;;;;0.00;0.00;;;;;;;;5039705;28;45955;-82
2023/01/02 04:30:18;;;;;;;;;0.00;0.00;;;;;;;;5070559;28;45307;-82
2023/01/02 04:32:44;;;;;;;;;0.00;0.00;;;;;;;;5041096;28;45403;-82
2023/01/02 04:35:12;;;;;;;;;1.00;0.00;;;;;;;;5039629;28;46064;-82
2023/01/02 04:37:39;;;;;;;;;0.00;0.00;;;;;;;;5040826;28;45320;-82
2023/01/02 04:40:20;;;;;;;;;0.00;0.00;;;;;;;;5034180;28;45281;-80
2023/01/02 04:42:46;;;;;;;;;0.00;0.00;;;;;;;;5040617;28;45367;-80
2023/01/02 04:45:11;;;;;;;;;0.00;0.00;;;;;;;;5035307;28;45226;-79
2023/01/02 04:47:36;;;;;;;;;0.00;0.00;;;;;;;;5039380;28;45451;-79
2023/01/02 04:50:02;;;;;;;;;0.00;0.00;;;;;;;;5035166;28;45499;-79
2023/01/02 04:52:27;;;;;;;;;1.00;1.00;;;;;;;;5039062;28;47399;-80
2023/01/02 04:54:53;;;;;;;;;0.00;0.00;;;;;;;;5066289;27;45287;-80
2023/01/02 04:57:18;;;;;;;;;0.00;0.00;;;;;;;;5040416;28;45552;-81
2023/01/02 04:59:43;;;;;;;;;0.00;0.00;;;;;;;;5034244;28;45478;-80
2023/01/02 05:02:08;;;;;;;;;0.67;0.00;;;;;;;;5040392;28;45739;-80
2023/01/02 05:04:34;;;;;;;;;0.00;0.00;;;;;;;;5038240;28;47869;-80
2023/01/02 05:06:59;;;;;;;;;0.00;0.00;;;;;;;;5040565;28;45284;-80
2023/01/02 05:09:24;;;;;;;;;1.00;0.00;;;;;;;;5036163;28;45401;-79
2023/01/02 05:11:49;;;;;;;;;0.00;0.00;;;;;;;;5040239;28;45301;-80
2023/01/02 05:14:14;;;;;;;;;0.00;0.00;;;;;;;;5038419;28;47222;-79
2023/01/02 05:16:39;;;;;;;;;0.00;0.00;;;;;;;;5040399;28;45209;-79
2023/01/02 05:19:05;;;;;;;;;0.00;0.00;;;;;;;;5070621;28;45284;-79
2023/01/02 05:24:14;;;;;;;;;0.00;0.00;;;;;;;;5037733;28;45427;-80
2023/01/02 05:26:39;;;;;;;;;0.00;0.00;;;;;;;;5039841;28;45289;-80
2023/01/02 05:29:04;;;;;;;;;0.00;0.00;;;;;;;;5038101;28;45448;-80
2023/01/02 05:31:29;;;;;;;;;0.00;0.00;;;;;;;;5039750;28;45520;-80
2023/01/02 05:33:56;;;;;;;;;0.33;0.33;;;;;;;;5070958;27;47884;-79
2023/01/02 05:36:22;;;;;;;;;1.00;0.00;;;;;;;;5034208;28;45179;-80
2023/01/02 05:38:47;;;;;;;;;0.00;0.00;;;;;;;;5038165;28;45500;-79
2023/01/02 05:41:13;;;;;;;;;1.00;0.00;;;;;;;;5035120;28;45330;-79
2023/01/02 05:43:39;;;;;;;;;0.00;0.00;;;;;;;;5071046;27;45549;-79
2023/01/02 05:46:07;;;;;;;;;1.00;0.00;;;;;;;;5035426;28;45403;-79
2023/01/02 05:48:32;;;;;;;;;0.00;0.00;;;;;;;;5038500;28;45335;-80
2023/01/02 05:51:00;;;;;;;;;0.00;0.00;;;;;;;;5067610;27;45422;-79
2023/01/02 05:53:25;;;;;;;;;1.00;0.00;;;;;;;;5038517;28;46805;-79
2023/01/02 05:55:50;;;;;;;;;0.00;0.00;;;;;;;;5034149;28;45225;-79
2023/01/02 05:58:15;;;;;;;;;0.00;0.00;;;;;;;;5039633;28;45289;-80
2023/01/02 06:00:40;;;;;;;;;0.33;0.33;;;;;;;;5037513;28;46069;-81
2023/01/02 06:03:06;;;;;;;;;0.00;0.00;;;;;;;;5038657;28;46243;-81
2023/01/02 06:05:31;;;;;;;;;0.00;0.00;;;;;;;;5032813;28;45467;-79
2023/01/02 06:07:56;;;;;;;;;0.00;0.00;;;;;;;;5036262;28;45580;-80
2023/01/02 06:10:21;;;;;;;;;0.00;0.00;;;;;;;;5033963;28;45380;-80
2023/01/02 06:12:46;;;;;;;;;0.00;0.00;;;;;;;;5039367;28;45297;-79
2023/01/02 06:15:12;;;;;;;;;1.00;0.00;;;;;;;;5037733;28;45560;-80
2023/01/02 06:17:37;;;;;;;;;2.00;0.00;;;;;;;;5071959;27;45223;-79
2023/01/02 06:20:02;;;;;;;;;0.00;0.00;;;;;;;;5032597;28;45622;-80
2023/01/02 06:22:27;;;;;;;;;0.00;0.00;;;;;;;;5038895;28;45471;-79
2023/01/02 06:24:53;;;;;;;;;0.00;0.00;;;;;;;;5031751;28;45513;-81
2023/01/02 06:27:18;;;;;;;;;2.00;0.00;;;;;;;;5036661;28;45242;-81
2023/01/02 06:29:43;;;;;;;;;1.00;0.00;;;;;;;;5034468;28;45442;-81
2023/01/02 06:32:09;;;;;;;;;0.00;0.00;;;;;;;;5065121;28;46923;-76
2023/01/02 06:34:34;;;;;;;;;0.00;0.00;;;;;;;;5033435;28;45407;-78
2023/01/02 06:36:59;;;;;;;;;1.00;0.00;;;;;;;;5035466;28;45225;-78
2023/01/02 06:39:25;;;;;;;;;0.00;0.00;;;;;;;;5032867;28;45261;-78
2023/01/02 06:41:50;;;;;;;;;0.00;0.00;;;;;;;;5037760;28;45326;-77
2023/01/02 06:44:16;;;;;;;;;0.00;0.00;;;;;;;;5034738;28;45338;-78
2023/01/02 06:46:41;;;;;;;;;0.00;0.00;;;;;;;;5068970;27;45922;-79
2023/01/02 06:49:06;;;;;;;;;2.00;0.00;;;;;;;;5034320;28;45308;-78
2023/01/02 06:51:31;;;;;;;;;0.00;0.00;;;;;;;;5036047;28;45309;-79
2023/01/02 06:53:56;;;;;;;;;0.00;0.00;;;;;;;;5034996;28;45426;-78
2023/01/02 06:56:22;;;;;;;;;0.00;0.00;;;;;;;;5035166;28;45471;-79
2023/01/02 06:58:47;;;;;;;;;0.00;0.00;;;;;;;;5034601;28;45491;-79
2023/01/02 07:01:14;;;;;;;;;0.00;0.00;;;;;;;;5034872;28;46113;-80
2023/01/02 07:03:40;;;;;;;;;0.67;0.67;;;;;;;;5036081;28;45236;-81
2023/01/02 07:06:06;;;;;;;;;0.00;0.00;;;;;;;;5034839;28;45275;-80
2023/01/02 07:08:32;;;;;;;;;0.00;0.00;;;;;;;;5036752;28;45522;-81
2023/01/02 07:11:07;;;;;;;;;0.00;0.00;;;;;;;;5034702;28;45664;-81
2023/01/02 07:13:33;;;;;;;;;0.00;0.00;;;;;;;;5036871;28;45412;-81
2023/01/02 07:16:02;;;;;;;;;0.00;0.00;;;;;;;;5036693;28;45248;-81
2023/01/02 07:18:27;;;;;;;;;0.00;0.00;;;;;;;;5060655;28;45737;-81
2023/01/02 07:20:53;;;;;;;;;0.00;0.00;;;;;;;;5039902;28;45257;-80
2023/01/02 07:23:18;;;;;;;;;0.00;0.00;;;;;;;;5041988;28;45301;-81
2023/01/02 07:25:44;;;;;;;;;0.00;0.00;;;;;;;;5040277;28;45494;-81
2023/01/02 07:28:09;;;;;;;;;0.67;0.00;;;;;;;;5040545;28;45768;-81
2023/01/02 07:30:34;;;;;;;;;0.00;0.00;;;;;;;;5039301;28;47174;-82
2023/01/02 07:32:59;;;;;;;;;0.00;0.00;;;;;;;;5041644;28;45279;-81
2023/01/02 07:35:24;;;;;;;;;0.00;0.00;;;;;;;;5040928;28;45515;-81
2023/01/02 07:37:50;;;;;;;;;0.00;0.00;;;;;;;;5041636;28;45172;-81
2023/01/02 07:40:15;;;;;;;;;0.00;0.00;;;;;;;;5031283;28;45627;-81
2023/01/02 07:42:40;;;;;;;;;1.00;1.00;;;;;;;;5038171;28;45405;-81
2023/01/02 07:45:06;;;;;;;;;0.00;0.00;;;;;;;;5034924;28;45276;-81
2023/01/02 07:47:31;;;;;;;;;1.00;1.00;;;;;;;;5041375;28;45470;-79
2023/01/02 07:49:56;;;;;;;;;0.00;0.00;;;;;;;;5034760;28;45420;-79
2023/01/02 07:52:22;;;;;;;;;0.00;0.00;;;;;;;;5040097;28;45235;-79
2023/01/02 07:54:47;;;;;;;;;2.00;2.00;;;;;;;;5035304;28;45439;-79
2023/01/02 07:57:12;;;;;;;;;1.00;1.00;;;;;;;;5040407;28;45525;-80
2023/01/02 07:59:37;;;;;;;;;1.00;1.00;;;;;;;;5035881;28;45240;-78
2023/01/02 08:02:03;;;;;;;;;1.33;1.33;;;;;;;;5037885;28;45372;-79
2023/01/02 08:04:28;;;;;;;;;1.00;1.00;;;;;;;;5036969;28;45316;-79
2023/01/02 08:06:53;;;;;;;;;2.00;2.00;;;;;;;;5041414;28;45342;-78
2023/01/02 08:09:18;;;;;;;;;0.67;0.00;;;;;;;;5037093;28;45907;-78
2023/01/02 08:11:43;;;;;;;;;0.00;0.00;;;;;;;;5041060;28;45502;-78
2023/01/02 08:14:09;;;;;;;;;0.33;0.33;;;;;;;;5038727;28;45329;-79
2023/01/02 08:16:34;;;;;;;;;0.00;0.00;;;;;;;;5040149;28;45409;-78
2023/01/02 08:18:59;;;;;;;;;0.00;0.00;;;;;;;;5038879;28;45070;-82
2023/01/02 08:21:25;;;;;;;;;0.00;0.00;;;;;;;;5073152;28;45623;-81
2023/01/02 08:23:50;;;;;;;;;0.00;0.00;;;;;;;;5039273;28;45354;-81
2023/01/02 08:26:15;;;;;;;;;0.00;0.00;;;;;;;;5040688;28;45518;-81
2023/01/02 08:28:41;;;;;;;;;0.00;0.00;;;;;;;;5039466;28;45437;-81
2023/01/02 08:31:08;;;;;;;;;0.00;0.00;;;;;;;;5038459;28;45708;-81
2023/01/02 08:33:33;;;;;;;;;0.00;0.00;;;;;;;;5039357;28;45487;-81
2023/01/02 08:35:58;;;;;;;;;0.33;0.00;;;;;;;;5035613;28;45450;-81
2023/01/02 08:38:23;;;;;;;;;0.00;0.00;;;;;;;;5040434;28;45454;-81
2023/01/02 08:40:49;;;;;;;;;0.00;0.00;;;;;;;;5043246;28;45298;-81
2023/01/02 08:43:14;;;;;;;;;0.00;0.00;;;;;;;;5035393;28;45226;-81
2023/01/02 08:45:40;;;;;;;;;0.00;0.00;;;;;;;;5034698;28;45592;-81
2023/01/02 08:48:05;;;;;;;;;0.00;0.00;;;;;;;;5040224;28;46147;-81
2023/01/02 08:50:30;;;;;;;;;6.50;6.50;;;;;;;;5036020;28;45337;-81
2023/01/02 08:52:55;;;;;;;;;1.00;1.00;;;;;;;;5041352;28;45401;-81
2023/01/02 08:55:20;;;;;;;;;0.33;0.33;;;;;;;;5037203;28;45627;-81
2023/01/02 08:57:46;;;;;;;;;2.00;2.00;;;;;;;;5041462;28;45292;-81
2023/01/02 09:00:11;;;;;;;;;1.00;1.00;;;;;;;;5035139;28;46248;-81
2023/01/02 09:02:36;;;;;;;;;1.00;0.00;;;;;;;;5073412;28;45324;-82
2023/01/02 09:05:01;;;;;;;;;3.33;1.33;;;;;;;;5035828;28;45318;-81
2023/01/02 09:07:27;;;;;;;;;1.00;1.00;;;;;;;;5075460;27;45615;-80
2023/01/02 09:09:52;;;;;;;;;0.00;0.00;;;;;;;;5038063;28;45313;-80
2023/01/02 09:12:18;;;;;;;;;0.00;0.00;;;;;;;;5043885;28;45304;-80
2023/01/02 09:14:43;;;;;;;;;2.00;1.00;;;;;;;;5072990;27;46110;-79
2023/01/02 09:17:08;;;;;;;;;0.00;0.00;;;;;;;;5042082;28;45456;-81
2023/01/02 09:19:34;;;;;;;;;0.00;0.00;;;;;;;;5038539;28;45365;-80
2023/01/02 09:22:00;;;;;;;;;1.00;1.00;;;;;;;;5040394;28;45371;-80
2023/01/02 09:24:25;;;;;;;;;0.33;0.33;;;;;;;;5070806;27;46736;-80
2023/01/02 09:26:50;;;;;;;;;0.00;0.00;;;;;;;;5039009;28;46573;-80
2023/01/02 09:29:16;;;;;;;;;1.33;1.33;;;;;;;;5037551;28;45273;-79
2023/01/02 09:31:41;;;;;;;;;1.00;0.00;;;;;;;;5040060;28;45534;-80
2023/01/02 09:34:06;;;;;;;;;1.00;1.00;;;;;;;;5039185;28;45351;-79
2023/01/02 09:36:31;;;;;;;;;3.33;3.33;;;;;;;;5072153;28;46918;-80
2023/01/02 09:38:57;;;;;;;;;1.00;1.00;;;;;;;;5041027;28;45249;-80
2023/01/02 09:41:29;;;;;;;;;2.00;2.00;;;;;;;;5035506;28;45391;-79
2023/01/02 09:43:56;;;;;;;;;2.67;0.00;;;;;;;;5036349;28;45424;-79
2023/01/02 09:46:22;;;;;;;;;0.00;0.00;;;;;;;;5035991;28;46703;-79
2023/01/02 09:48:47;;;;;;;;;1.00;1.00;;;;;;;;5037254;28;45268;-81
2023/01/02 09:51:12;;;;;;;;;1.00;1.00;;;;;;;;5046235;28;45286;-80
2023/01/02 09:53:37;;;;;;;;;1.00;1.00;;;;;;;;5036536;28;45296;-81
2023/01/02 09:56:08;;;;;;;;;1.00;1.00;;;;;;;;5067562;27;47831;-81
2023/01/02 09:58:54;;;;;;;;;1.00;1.00;;;;;;;;5037569;28;45327;-79
2023/01/02 10:01:38;;;;;;;;;0.00;0.00;;;;;;;;5029104;28;45602;-79
2023/01/02 10:04:15;;;;;;;;;0.67;0.67;;;;;;;;5027224;28;45590;-80
2023/01/02 10:06:46;;;;;;;;;1.00;1.00;;;;;;;;5038852;28;45617;-82
2023/01/02 10:09:15;;;;;;;;;0.00;0.00;;;;;;;;5036783;28;45342;-79
2023/01/02 10:12:09;;;;;;;;;0.00;0.00;;;;;;;;5037817;28;45408;-79
2023/01/02 10:14:52;;;;;;;;;1.33;0.00;;;;;;;;5034461;28;45419;-80
2023/01/02 10:17:18;;;;;;;;;1.00;1.00;;;;;;;;5037389;28;46446;-79
2023/01/02 10:19:55;;;;;;;;;3.33;1.00;;;;;;;;5036053;28;45407;-79
2023/01/02 10:22:23;;;;;;;;;1.00;1.00;;;;;;;;5039336;28;45470;-80
2023/01/02 10:24:51;;;;;;;;;1.00;1.00;;;;;;;;5037143;28;45320;-78
2023/01/02 10:27:19;;;;;;;;;0.33;0.33;;;;;;;;5038939;28;45640;-80
2023/01/02 10:29:52;;;;;;;;;2.33;1.00;;;;;;;;5035207;28;45363;-78
2023/01/02 10:32:19;;;;;;;;;1.00;1.00;;;;;;;;5039256;28;45245;-77
2023/01/02 10:34:52;;;;;;;;;0.00;0.00;;;;;;;;5041895;28;45274;-78
2023/01/02 10:37:18;;;;;;;;;2.00;2.00;;;;;;;;5036857;28;46086;-79
2023/01/02 10:39:44;;;;;;;;;0.67;0.33;;;;;;;;5034645;28;45459;-80
2023/01/02 10:42:11;;;;;;;;;3.00;3.00;;;;;;;;5037333;28;44797;-80
2023/01/02 10:44:37;;;;;;;;;1.00;1.00;;;;;;;;5032117;28;45534;-81
2023/01/02 10:47:37;;;;;;;;;2.00;0.67;;;;;;;;5036594;28;46187;-80
2023/01/02 10:50:07;;;;;;;;;1.00;1.00;;;;;;;;5027535;28;45309;-80
2023/01/02 10:52:33;;;;;;;;;1.67;1.00;;;;;;;;5034680;28;45504;-78
2023/01/02 10:54:59;;;;;;;;;0.00;0.00;;;;;;;;5031798;28;45341;-78
2023/01/02 10:57:33;;;;;;;;;1.33;1.33;;;;;;;;5038114;28;45245;-79
2023/01/02 10:59:59;;;;;;;;;1.00;1.00;;;;;;;;5036428;28;45453;-78
2023/01/02 11:02:35;;;;;;;;;2.00;2.00;;;;;;;;5038376;28;45345;-77
2023/01/02 11:05:01;;;;;;;;;1.00;1.00;;;;;;;;5036272;28;45761;-77
2023/01/02 11:07:27;;;;;;;;;1.00;1.00;;;;;;;;5038559;28;45337;-78
2023/01/02 11:09:54;;;;;;;;;1.00;1.00;;;;;;;;5033472;28;45379;-76
2023/01/02 11:12:19;;;;;;;;;1.00;1.00;;;;;;;;5038487;28;45344;-77
2023/01/02 11:14:44;;;;;;;;;0.00;0.00;;;;;;;;5067302;27;45351;-77
2023/01/02 11:17:14;;;;;;;;;1.67;0.67;;;;;;;;5038411;28;45473;-77
2023/01/02 11:19:39;;;;;;;;;0.00;0.00;;;;;;;;5035689;28;45213;-77
2023/01/02 11:22:04;;;;;;;;;1.33;1.33;;;;;;;;5038456;28;45221;-77
2023/01/02 11:24:31;;;;;;;;;1.00;1.00;;;;;;;;5036048;28;45371;-77
2023/01/02 11:27:00;;;;;;;;;0.00;0.00;;;;;;;;5070584;27;45343;-77
2023/01/02 11:29:30;;;;;;;;;1.00;1.00;;;;;;;;5035967;28;45549;-77
2023/01/02 11:31:57;;;;;;;;;3.00;1.33;;;;;;;;5032203;28;45206;-77
2023/01/02 11:34:24;;;;;;;;;0.00;0.00;;;;;;;;5036192;28;45392;-77
2023/01/02 11:37:27;;;;;;;;;0.00;0.00;;;;;;;;5032907;28;45439;-78
2023/01/02 11:39:57;;;;;;;;;2.00;2.00;;;;;;;;4983054;28;45333;-77
2023/01/02 11:45:13;;;;;;;;;0.00;0.00;;;;;;;;5014571;28;44796;-77
2023/01/02 11:47:45;;;;;;;;;2.00;1.00;;;;;;;;5035427;28;45363;-77
2023/01/02 11:50:15;;;;;;;;;0.67;0.67;;;;;;;;5033056;28;45394;-77
2023/01/02 11:52:48;;;;;;;;;1.33;0.00;;;;;;;;5038207;28;45308;-78
2023/01/02 11:55:16;;;;;;;;;0.00;0.00;;;;;;;;5031390;28;45487;-77
2023/01/02 11:57:48;;;;;;;;;0.67;0.67;;;;;;;;5070060;28;47467;-78
2023/01/02 12:00:15;;;;;;;;;3.33;1.00;;;;;;;;5030557;28;45448;-79
2023/01/02 12:02:43;;;;;;;;;0.33;0.33;;;;;;;;5033448;28;45350;-79
2023/01/02 12:05:12;;;;;;;;;0.33;0.00;;;;;;;;5034843;28;45343;-78
2023/01/02 12:07:43;;;;;;;;;0.67;0.67;;;;;;;;5041284;28;45296;-75
2023/01/02 12:10:28;;;;;;;;;2.00;1.00;;;;;;;;5036975;28;45371;-78
2023/01/02 12:13:12;;;;;;;;;0.67;0.67;;;;;;;;5040967;28;45295;-78
2023/01/02 12:15:52;;;;;;;;;3.00;1.00;;;;;;;;5070015;27;45508;-78
2023/01/02 12:18:30;;;;;;;;;0.00;0.00;;;;;;;;5040695;28;45525;-78
2023/01/02 12:21:04;;;;;;;;;0.33;0.33;;;;;;;;5038809;28;45363;-78
2023/01/02 12:23:52;;;;;;;;;1.00;1.00;;;;;;;;5040461;28;45281;-78
2023/01/02 12:26:20;;;;;;;;;2.33;1.00;;;;;;;;5039100;28;45479;-78
2023/01/02 12:28:48;;;;;;;;;1.50;1.50;;;;;;;;5037505;28;46464;-77
2023/01/02 12:31:32;;;;;;;;;0.00;0.00;;;;;;;;5032538;28;45443;-78
2023/01/02 12:33:58;;;;;;;;;0.00;0.00;;;;;;;;5038558;28;45226;-77
2023/01/02 12:36:42;;;;;;;;;1.00;0.00;;;;;;;;5035960;28;45238;-78
2023/01/02 12:39:22;;;;;;;;;0.00;0.00;;;;;;;;5037564;28;45563;-78
2023/01/02 12:41:55;;;;;;;;;0.67;0.67;;;;;;;;5039549;28;45439;-77
2023/01/02 12:44:41;;;;;;;;;1.00;1.00;;;;;;;;5034464;28;46444;-77
2023/01/02 12:47:38;;;;;;;;;1.00;1.00;;;;;;;;5040258;28;45424;-77
2023/01/02 12:50:09;;;;;;;;;1.00;1.00;;;;;;;;5012299;28;45276;-76
2023/01/02 12:52:53;;;;;;;;;2.67;0.00;;;;;;;;5040350;28;45301;-77
2023/01/02 12:55:37;;;;;;;;;0.00;0.00;;;;;;;;5035031;28;45502;-77
2023/01/02 12:58:08;;;;;;;;;2.67;0.00;;;;;;;;5069353;28;45513;-77
2023/01/02 13:00:52;;;;;;;;;0.67;0.00;;;;;;;;5035563;28;45317;-77
2023/01/02 13:03:26;;;;;;;;;2.67;1.00;;;;;;;;5072162;28;45315;-76
2023/01/02 13:05:53;;;;;;;;;1.00;1.00;;;;;;;;5070020;28;45367;-77
2023/01/02 13:08:23;;;;;;;;;0.67;0.00;;;;;;;;5040401;28;45269;-76
2023/01/02 13:10:49;;;;;;;;;0.00;0.00;;;;;;;;5069162;28;46356;-76
2023/01/02 13:13:14;;;;;;;;;0.00;0.00;;;;;;;;5040137;28;45376;-76
2023/01/02 13:15:43;;;;;;;;;1.33;1.33;;;;;;;;5037619;28;45407;-76
2023/01/02 13:18:08;;;;;;;;;1.00;1.00;;;;;;;;5039949;28;44809;-77
2023/01/02 13:20:42;;;;;;;;;1.00;1.00;;;;;;;;5037918;28;46299;-77
2023/01/02 13:23:26;;;;;;;;;2.00;2.00;;;;;;;;5039044;28;45344;-77
2023/01/02 13:25:52;;;;;;;;;1.00;0.00;;;;;;;;5046041;28;45290;-77
2023/01/02 13:28:18;;;;;;;;;0.67;0.67;;;;;;;;5040160;28;45250;-77
2023/01/02 13:30:50;;;;;;;;;0.00;0.00;;;;;;;;5037363;28;45424;-77
2023/01/02 13:33:35;;;;;;;;;2.00;0.00;;;;;;;;5040155;28;45422;-76
2023/01/02 13:36:19;;;;;;;;;1.00;0.00;;;;;;;;5034350;28;45312;-76
2023/01/02 13:38:47;;;;;;;;;1.67;0.00;;;;;;;;5037577;28;45369;-76
2023/01/02 13:41:14;;;;;;;;;1.00;1.00;;;;;;;;5067662;28;47042;-76
2023/01/02 13:43:40;;;;;;;;;0.00;0.00;;;;;;;;5037517;28;45641;-77
2023/01/02 13:46:09;;;;;;;;;1.00;1.00;;;;;;;;5035430;28;45284;-78
2023/01/02 13:48:34;;;;;;;;;1.00;1.00;;;;;;;;5038406;28;45281;-77
2023/01/02 13:51:01;;;;;;;;;0.00;0.00;;;;;;;;5034040;28;45450;-76
2023/01/02 13:53:38;;;;;;;;;0.00;0.00;;;;;;;;5036111;28;45367;-76
2023/01/02 13:56:07;;;;;;;;;1.00;1.00;;;;;;;;5034328;28;45295;-77
2023/01/02 13:58:36;;;;;;;;;0.00;0.00;;;;;;;;5035305;27;45461;-77
2023/01/02 14:01:22;;;;;;;;;0.00;0.00;;;;;;;;5033628;28;45486;-76
2023/01/02 14:03:47;;;;;;;;;1.33;0.00;;;;;;;;5031736;28;45474;-77
2023/01/02 14:06:29;;;;;;;;;0.00;0.00;;;;;;;;5037693;28;45402;-74
2023/01/02 14:09:04;;;;;;;;;0.00;0.00;;;;;;;;5033097;28;45573;-74
2023/01/02 14:12:04;;;;;;;;;0.00;0.00;;;;;;;;5036780;28;46560;-74
2023/01/02 14:14:50;;;;;;;;;0.00;0.00;;;;;;;;5029920;28;45361;-75
2023/01/02 14:17:41;;;;;;;;;0.00;0.00;;;;;;;;5038066;28;45304;-74
2023/01/02 14:20:16;;;;;;;;;1.00;0.00;;;;;;;;5030504;28;45577;-75
2023/01/02 14:22:55;;;;;;;;;0.00;0.00;;;;;;;;5037954;28;45742;-74
2023/01/02 14:25:20;;;;;;;;;0.00;0.00;;;;;;;;5035183;28;45391;-75
2023/01/02 14:27:57;;;;;;;;;0.67;0.67;;;;;;;;5036707;28;45297;-76
2023/01/02 14:30:39;;;;;;;;;0.67;0.00;;;;;;;;5035070;28;45521;-76
2023/01/02 14:33:24;;;;;;;;;0.33;0.33;;;;;;;;5034299;28;46625;-74
2023/01/02 14:35:51;;;;;;;;;1.00;0.00;;;;;;;;5033143;28;45618;-76
2023/01/02 14:38:17;;;;;;;;;0.00;0.00;;;;;;;;5036490;28;45228;-77
2023/01/02 14:40:43;;;;;;;;;0.00;0.00;;;;;;;;5066650;28;46018;-76
2023/01/02 14:43:32;;;;;;;;;2.00;1.00;;;;;;;;5037896;28;46724;-76
2023/01/02 14:46:07;;;;;;;;;0.00;0.00;;;;;;;;5068577;28;45657;-74
2023/01/02 14:48:46;;;;;;;;;2.33;2.33;;;;;;;;5037065;28;45478;-74
2023/01/02 14:51:14;;;;;;;;;1.00;1.00;;;;;;;;5051809;28;46353;-73
2023/01/02 14:54:03;;;;;;;;;1.00;1.00;;;;;;;;5037082;28;45569;-73
2023/01/02 14:56:31;;;;;;;;;0.67;0.67;;;;;;;;5033884;28;45412;-76
2023/01/02 14:58:58;;;;;;;;;1.00;1.00;;;;;;;;5069973;27;45252;-74
2023/01/02 15:01:26;;;;;;;;;0.00;0.00;;;;;;;;5070449;28;47041;-74